KPWD/PWD METAR and TAF weather

Enter ICAO airport designator
Station Type Date Time Source
KPWD METAR 2022/01/19 19:55 UTC NOAA

KPWD 191955Z AUTO 31007KT 10SM M22/M26 A3057 RMK A01


Station Type Date Time Source
KPWD Decoded METAR 2022/01/19 19:55 UTC NOAA

Station name not available
Jan 19, 2022 - 02:55 PM EST / 2022.01.19 1955 UTC
Wind: from the NW (310 degrees) at 8 MPH (7 KT):0
Visibility: 10 mile(s):0
Temperature: -7 F (-22 C)
Windchill: -22 F (-30 C):2
Dew Point: -14 F (-26 C)
Relative Humidity: 69%
Pressure (altimeter): 30.57 in. Hg (1035 hPa)
ob: KPWD 191955Z AUTO 31007KT 10SM M22/M26 A3057 RMK A01
cycle: 20

Station Type Date Time Source
KPWD TAF UTC NOAA

Error!

Example: see airport list